createdAt,value
2023-05-04T00:00:59.658Z,11.42
2023-05-04T00:03:02.385Z,11.39
2023-05-04T00:05:06.470Z,11.35
2023-05-04T00:07:09.267Z,11.30
2023-05-04T00:09:13.713Z,11.26
2023-05-04T00:11:17.640Z,11.23
2023-05-04T00:13:20.297Z,11.19
2023-05-04T00:15:23.118Z,11.20
2023-05-04T00:17:25.785Z,11.18
2023-05-04T00:19:28.595Z,11.15
2023-05-04T00:21:31.380Z,11.10
2023-05-04T00:23:34.301Z,11.07
2023-05-04T00:25:37.227Z,11.05
2023-05-04T00:27:39.984Z,11.02
2023-05-04T00:29:42.659Z,10.98
2023-05-04T00:31:45.407Z,10.93
2023-05-04T00:33:48.141Z,10.88
2023-05-04T00:35:50.863Z,10.85
2023-05-04T00:37:53.650Z,10.83
2023-05-04T00:39:56.402Z,10.81
2023-05-04T00:41:59.114Z,10.81
2023-05-04T00:44:04.447Z,10.79
2023-05-04T00:46:07.207Z,10.82
2023-05-04T00:48:10.429Z,10.81
2023-05-04T00:50:13.214Z,10.80
2023-05-04T00:52:16.711Z,10.76
2023-05-04T00:54:20.125Z,10.75
2023-05-04T00:56:24.703Z,10.77
2023-05-04T00:58:27.503Z,10.81
2023-05-04T01:00:30.334Z,10.85
2023-05-04T01:02:33.175Z,10.88
2023-05-04T01:04:36.110Z,10.92
2023-05-04T01:06:49.116Z,10.98
2023-05-04T01:09:21.042Z,11.02
2023-05-04T01:12:15.815Z,11.07
2023-05-04T01:14:21.463Z,11.07
2023-05-04T01:16:24.206Z,11.13
2023-05-04T01:18:27.222Z,11.16
2023-05-04T01:20:30.231Z,11.19
2023-05-04T01:22:33.168Z,11.20
2023-05-04T01:24:36.026Z,11.25
2023-05-04T01:26:42.105Z,11.28
2023-05-04T01:28:53.309Z,11.33
2023-05-04T01:31:00.559Z,11.40
2023-05-04T01:33:04.618Z,11.47
2023-05-04T01:35:08.051Z,11.54
2023-05-04T01:37:11.064Z,11.59
2023-05-04T01:39:13.739Z,11.65
2023-05-04T01:41:16.406Z,11.70
2023-05-04T01:43:19.163Z,11.68
2023-05-04T01:45:22.054Z,11.75
2023-05-04T01:47:24.792Z,11.78
2023-05-04T01:49:27.567Z,11.81
2023-05-04T01:51:30.190Z,11.85
2023-05-04T01:53:32.932Z,11.88
2023-05-04T01:55:35.648Z,11.93
2023-05-04T01:57:38.614Z,11.99
2023-05-04T01:59:41.213Z,12.06
2023-05-04T02:01:44.065Z,12.12
2023-05-04T02:03:47.105Z,12.18
2023-05-04T02:05:49.900Z,12.25
2023-05-04T02:07:52.698Z,12.33
2023-05-04T02:09:55.328Z,12.41
2023-05-04T02:11:57.948Z,12.45
2023-05-04T02:14:01.798Z,12.50
2023-05-04T02:16:04.965Z,12.53
2023-05-04T02:18:07.780Z,12.58
2023-05-04T02:20:10.871Z,12.62
2023-05-04T02:22:13.536Z,12.61
2023-05-04T02:24:16.361Z,12.65
2023-05-04T02:26:18.976Z,12.67
2023-05-04T02:28:21.831Z,12.71
2023-05-04T02:30:24.629Z,12.73
2023-05-04T02:32:27.589Z,12.75
2023-05-04T02:34:30.754Z,12.75
2023-05-04T02:36:33.399Z,12.74
2023-05-04T02:38:36.197Z,12.78
2023-05-04T02:40:38.930Z,12.81
2023-05-04T02:42:41.772Z,12.84
2023-05-04T02:44:44.440Z,12.90
2023-05-04T02:46:47.160Z,12.96
2023-05-04T02:48:49.813Z,12.98
2023-05-04T02:50:52.794Z,13.03
2023-05-04T02:52:55.476Z,13.07
2023-05-04T02:54:58.139Z,13.11
2023-05-04T02:57:00.991Z,13.15
2023-05-04T02:59:03.718Z,13.17
2023-05-04T03:01:06.591Z,13.21
2023-05-04T03:03:09.444Z,13.21
2023-05-04T03:05:12.084Z,13.21
2023-05-04T03:07:14.767Z,13.23
2023-05-04T03:09:17.540Z,13.24
2023-05-04T03:11:20.222Z,13.23
2023-05-04T03:13:23.001Z,13.22
2023-05-04T03:15:25.708Z,13.21
2023-05-04T03:17:28.491Z,13.27
2023-05-04T03:19:31.375Z,13.29
2023-05-04T03:21:34.015Z,13.34
2023-05-04T03:23:36.718Z,13.36
2023-05-04T03:25:39.449Z,13.39
2023-05-04T03:27:42.215Z,13.42
2023-05-04T03:29:44.927Z,13.47
2023-05-04T03:31:47.773Z,13.57
2023-05-04T03:33:50.798Z,13.58
2023-05-04T03:35:53.512Z,13.63
2023-05-04T03:37:56.322Z,13.65
2023-05-04T03:39:59.207Z,13.70
2023-05-04T03:42:02.824Z,13.76
2023-05-04T03:44:05.541Z,13.82
2023-05-04T03:46:08.374Z,13.87
2023-05-04T03:48:11.309Z,13.95
2023-05-04T03:50:14.496Z,14.02
2023-05-04T03:52:17.261Z,14.08
2023-05-04T03:54:19.916Z,14.16
2023-05-04T03:56:22.810Z,14.22
2023-05-04T03:58:25.582Z,14.30
2023-05-04T04:00:28.301Z,14.40
2023-05-04T04:02:31.447Z,14.49
2023-05-04T04:04:34.710Z,14.61
2023-05-04T04:06:37.666Z,14.67
2023-05-04T04:08:40.402Z,14.73
2023-05-04T04:10:43.042Z,14.79
2023-05-04T04:12:45.879Z,14.86
2023-05-04T04:14:54.678Z,14.91
2023-05-04T04:16:57.429Z,14.99
2023-05-04T04:19:02.026Z,15.04
2023-05-04T04:21:04.944Z,15.07
2023-05-04T04:23:08.053Z,15.17
2023-05-04T04:25:10.699Z,15.22
2023-05-04T04:27:13.942Z,15.28
2023-05-04T04:29:16.678Z,15.38
2023-05-04T04:31:20.109Z,15.44
2023-05-04T04:33:23.048Z,15.55
2023-05-04T04:35:26.997Z,15.66
2023-05-04T04:37:29.866Z,15.76
2023-05-04T04:39:33.070Z,15.83
2023-05-04T04:41:35.720Z,15.87
2023-05-04T04:43:38.477Z,15.87
2023-05-04T04:45:41.582Z,15.94
2023-05-04T04:47:45.358Z,16.01
2023-05-04T04:49:48.947Z,16.02
2023-05-04T04:51:51.827Z,16.10
2023-05-04T04:53:54.780Z,16.13
2023-05-04T04:55:57.537Z,16.15
2023-05-04T04:58:00.586Z,16.10
2023-05-04T05:00:08.314Z,16.21
2023-05-04T05:02:11.085Z,16.23
2023-05-04T05:04:13.951Z,16.23
2023-05-04T05:06:16.943Z,16.23
2023-05-04T05:08:19.631Z,16.26
2023-05-04T05:10:22.464Z,16.28
2023-05-04T05:12:25.272Z,16.30
2023-05-04T05:14:28.010Z,16.34
2023-05-04T05:16:30.797Z,16.37
2023-05-04T05:18:33.514Z,16.36
2023-05-04T05:20:36.312Z,16.33
2023-05-04T05:22:39.482Z,16.34
2023-05-04T05:24:42.834Z,16.32
2023-05-04T05:26:45.734Z,16.27
2023-05-04T05:28:49.243Z,16.29
2023-05-04T05:30:52.536Z,16.35
2023-05-04T05:32:55.336Z,16.43
2023-05-04T05:34:59.409Z,16.48
2023-05-04T05:37:02.283Z,16.54
2023-05-04T05:39:05.844Z,16.59
2023-05-04T05:41:10.055Z,16.67
2023-05-04T05:43:12.734Z,16.77
2023-05-04T05:45:15.864Z,16.85
2023-05-04T05:47:18.544Z,16.96
2023-05-04T05:49:21.216Z,17.03
2023-05-04T05:51:23.903Z,17.08
2023-05-04T05:53:26.925Z,17.15
2023-05-04T05:55:29.659Z,17.22
2023-05-04T05:57:32.293Z,17.29
2023-05-04T05:59:35.124Z,17.33
2023-05-04T06:01:39.075Z,17.40
2023-05-04T06:03:42.103Z,17.40
2023-05-04T06:05:45.078Z,17.47
2023-05-04T06:07:47.880Z,17.56
2023-05-04T06:09:50.900Z,17.62
2023-05-04T06:11:55.442Z,17.71
2023-05-04T06:13:58.307Z,17.75
2023-05-04T06:16:01.955Z,17.81
2023-05-04T06:18:05.052Z,17.87
2023-05-04T06:20:09.245Z,17.88
2023-05-04T06:22:11.998Z,17.92
2023-05-04T06:24:14.722Z,17.98
2023-05-04T06:26:17.522Z,18.04
2023-05-04T06:28:20.173Z,18.11
2023-05-04T06:30:28.977Z,18.11
2023-05-04T06:32:34.369Z,18.19
2023-05-04T06:34:37.103Z,18.26
2023-05-04T06:36:39.779Z,18.34
2023-05-04T06:38:42.497Z,18.42
2023-05-04T06:40:45.748Z,18.50
2023-05-04T06:42:48.555Z,18.54
2023-05-04T06:44:52.431Z,18.62
2023-05-04T06:46:55.199Z,18.65
2023-05-04T06:48:58.644Z,18.69
2023-05-04T06:51:02.225Z,18.77
2023-05-04T06:53:10.599Z,18.82
2023-05-04T06:55:14.105Z,18.86
2023-05-04T06:57:17.311Z,18.89
2023-05-04T06:59:20.702Z,18.94
2023-05-04T07:01:23.733Z,18.99
2023-05-04T07:03:27.228Z,19.06
2023-05-04T07:05:29.968Z,19.13
2023-05-04T07:07:32.724Z,19.19
2023-05-04T07:09:35.503Z,19.24
2023-05-04T07:11:38.213Z,19.35
2023-05-04T07:13:40.890Z,19.41
2023-05-04T07:15:43.520Z,19.48
2023-05-04T07:17:47.240Z,19.52
2023-05-04T07:19:52.552Z,19.60
2023-05-04T07:21:56.465Z,19.68
2023-05-04T07:23:59.489Z,19.69
2023-05-04T07:26:02.693Z,19.75
2023-05-04T07:28:06.046Z,19.77
2023-05-04T07:30:09.028Z,19.88
2023-05-04T07:32:12.051Z,19.96
2023-05-04T07:34:14.837Z,20.03
2023-05-04T07:36:17.896Z,20.09
2023-05-04T07:38:20.622Z,20.15
2023-05-04T07:40:23.444Z,20.19
2023-05-04T07:42:28.072Z,20.19
2023-05-04T07:44:31.781Z,20.20
2023-05-04T07:46:34.760Z,20.26
2023-05-04T07:48:37.568Z,20.33
2023-05-04T07:50:42.223Z,20.35
2023-05-04T07:52:46.640Z,20.36
2023-05-04T07:54:53.532Z,20.38
2023-05-04T07:56:56.660Z,20.37
2023-05-04T07:58:59.349Z,20.42
2023-05-04T08:01:02.137Z,20.49
2023-05-04T08:03:05.036Z,20.55
2023-05-04T08:05:08.740Z,20.61
2023-05-04T08:07:11.604Z,20.67
2023-05-04T08:09:14.355Z,20.71
2023-05-04T08:11:20.754Z,20.75
2023-05-04T08:13:24.135Z,20.78
2023-05-04T08:15:26.989Z,20.86
2023-05-04T08:17:29.911Z,20.93
2023-05-04T08:19:32.639Z,20.97
2023-05-04T08:21:35.441Z,21.03
2023-05-04T08:23:45.486Z,21.00
2023-05-04T08:25:48.298Z,21.19
2023-05-04T08:27:51.430Z,21.24
2023-05-04T08:29:54.511Z,21.32
2023-05-04T08:32:00.686Z,21.37
2023-05-04T08:34:04.290Z,21.43
2023-05-04T08:36:08.636Z,21.47
2023-05-04T08:38:11.450Z,21.57
2023-05-04T08:40:15.309Z,21.61
2023-05-04T08:42:31.833Z,21.65
2023-05-04T08:44:35.439Z,21.70
2023-05-04T08:46:40.210Z,21.83
2023-05-04T08:48:44.898Z,21.90
2023-05-04T08:50:48.038Z,21.90
2023-05-04T08:52:52.720Z,21.95
2023-05-04T08:54:57.059Z,22.01
2023-05-04T08:57:00.491Z,22.10
2023-05-04T08:59:04.222Z,22.19
2023-05-04T09:01:08.567Z,22.30
2023-05-04T09:03:12.807Z,22.39
2023-05-04T09:05:16.551Z,22.46
2023-05-04T09:07:20.656Z,22.49
2023-05-04T09:09:26.708Z,22.61
2023-05-04T09:11:29.880Z,22.67
2023-05-04T09:13:32.754Z,22.70
2023-05-04T09:15:35.474Z,22.68
2023-05-04T09:17:47.483Z,22.50
2023-05-04T09:20:01.450Z,22.53
2023-05-04T09:22:19.667Z,22.61
2023-05-04T09:24:27.187Z,22.68
2023-05-04T09:26:31.076Z,22.69
2023-05-04T09:28:36.928Z,22.58
2023-05-04T09:30:40.181Z,22.62
2023-05-04T09:32:49.872Z,22.56
2023-05-04T09:34:54.631Z,22.48
2023-05-04T09:37:03.951Z,22.38
2023-05-04T09:39:15.659Z,22.44
2023-05-04T09:41:18.678Z,22.38
2023-05-04T09:43:21.654Z,22.35
2023-05-04T09:45:24.432Z,22.41
2023-05-04T09:47:40.369Z,22.68
2023-05-04T09:49:43.496Z,22.70
2023-05-04T09:51:46.940Z,22.71
2023-05-04T09:53:51.034Z,22.67
2023-05-04T09:56:07.952Z,22.55
2023-05-04T09:58:13.440Z,22.54
2023-05-04T10:00:18.069Z,22.54
2023-05-04T10:02:23.409Z,22.59
2023-05-04T10:04:26.736Z,22.75
2023-05-04T10:06:30.548Z,22.87
2023-05-04T10:08:33.711Z,22.93
2023-05-04T10:10:39.567Z,22.94
2023-05-04T10:12:44.889Z,22.98
2023-05-04T10:14:47.757Z,23.10
2023-05-04T10:17:01.443Z,23.35
2023-05-04T10:19:32.510Z,23.42
2023-05-04T10:22:20.171Z,23.28
2023-05-04T10:24:50.449Z,23.46
2023-05-04T10:27:06.654Z,23.48
2023-05-04T10:29:28.930Z,23.40
2023-05-04T10:31:39.739Z,23.42
2023-05-04T10:33:43.893Z,23.62
2023-05-04T10:35:54.313Z,23.59
2023-05-04T10:37:57.383Z,23.77
2023-05-04T10:40:00.297Z,23.88
2023-05-04T10:42:05.377Z,24.06
2023-05-04T10:44:10.153Z,24.32
2023-05-04T10:46:20.334Z,24.38
2023-05-04T10:48:35.268Z,24.33
2023-05-04T10:50:45.114Z,24.42
2023-05-04T10:52:53.875Z,24.60
2023-05-04T10:55:01.622Z,24.80
2023-05-04T10:57:16.750Z,24.93
2023-05-04T10:59:19.704Z,24.86
2023-05-04T11:01:22.961Z,24.63
2023-05-04T11:03:26.218Z,24.45
2023-05-04T11:05:47.129Z,24.61
2023-05-04T11:07:53.508Z,24.88
2023-05-04T11:09:56.951Z,25.19
2023-05-04T11:12:00.115Z,25.54
2023-05-04T11:14:03.560Z,25.73
2023-05-04T11:16:06.626Z,26.00
2023-05-04T11:18:09.696Z,26.22
2023-05-04T11:20:19.691Z,26.23
2023-05-04T11:22:22.498Z,26.32
2023-05-04T11:24:26.358Z,26.27
2023-05-04T11:26:29.292Z,26.13
2023-05-04T11:28:41.249Z,25.91
2023-05-04T11:30:46.388Z,25.76
2023-05-04T11:32:54.264Z,25.76
2023-05-04T11:34:57.063Z,25.74
2023-05-04T11:37:00.366Z,25.58
2023-05-04T11:39:05.809Z,25.40
2023-05-04T11:41:09.333Z,25.13
2023-05-04T11:43:12.924Z,24.98
2023-05-04T11:45:39.730Z,24.95
2023-05-04T11:47:43.634Z,25.36
2023-05-04T11:49:47.777Z,25.79
2023-05-04T11:51:50.475Z,26.15
2023-05-04T11:53:54.005Z,26.51
2023-05-04T11:56:03.042Z,26.80
2023-05-04T11:58:10.856Z,26.92
2023-05-04T12:00:14.335Z,26.88
2023-05-04T12:02:18.384Z,26.62
2023-05-04T12:04:21.171Z,26.31
2023-05-04T12:06:34.026Z,25.98
2023-05-04T12:08:42.373Z,25.79
2023-05-04T12:10:45.439Z,25.78
2023-05-04T12:12:48.315Z,26.03
2023-05-04T12:14:54.763Z,26.52
2023-05-04T12:16:57.989Z,27.10
2023-05-04T12:19:11.529Z,27.03
2023-05-04T12:21:24.171Z,26.76
2023-05-04T12:23:27.728Z,26.33
2023-05-04T12:25:31.344Z,26.20
2023-05-04T12:27:34.164Z,26.22
2023-05-04T12:29:36.908Z,26.15
2023-05-04T12:31:40.001Z,26.15
2023-05-04T12:33:42.784Z,25.98
2023-05-04T12:35:45.542Z,25.65
2023-05-04T12:37:48.340Z,24.97
2023-05-04T12:39:51.217Z,24.79
2023-05-04T12:41:54.135Z,24.78
2023-05-04T12:43:56.857Z,25.17
2023-05-04T12:46:00.017Z,25.37
2023-05-04T12:48:02.864Z,25.66
2023-05-04T12:50:06.335Z,25.67
2023-05-04T12:52:09.306Z,25.49
2023-05-04T12:54:12.008Z,25.58
2023-05-04T12:56:14.720Z,25.83
2023-05-04T12:58:17.431Z,26.19
2023-05-04T13:00:20.743Z,26.36
2023-05-04T13:02:24.747Z,26.35
2023-05-04T13:04:27.496Z,26.16
2023-05-04T13:06:30.480Z,26.10
2023-05-04T13:08:33.809Z,26.08
2023-05-04T13:10:36.721Z,25.91
2023-05-04T13:12:39.901Z,25.45
2023-05-04T13:14:42.738Z,25.36
2023-05-04T13:16:45.504Z,25.68
2023-05-04T13:18:48.763Z,25.91
2023-05-04T13:20:53.891Z,25.72
2023-05-04T13:22:58.406Z,25.42
2023-05-04T13:25:01.408Z,25.40
2023-05-04T13:27:06.174Z,25.31
2023-05-04T13:29:08.860Z,25.38
2023-05-04T13:31:11.650Z,25.28
2023-05-04T13:33:28.195Z,25.47
2023-05-04T13:35:32.614Z,25.46
2023-05-04T13:37:35.660Z,25.40
2023-05-04T13:39:42.057Z,25.31
2023-05-04T13:41:44.871Z,25.64
2023-05-04T13:43:48.795Z,25.44
2023-05-04T13:45:52.168Z,25.67
2023-05-04T13:47:55.274Z,25.61
2023-05-04T13:49:58.282Z,25.56
2023-05-04T13:52:01.340Z,25.73
2023-05-04T13:54:04.336Z,25.62
2023-05-04T13:56:07.229Z,25.46
2023-05-04T13:58:10.102Z,25.27
2023-05-04T14:00:14.332Z,25.28
2023-05-04T14:02:17.801Z,25.31
2023-05-04T14:04:21.199Z,25.06
2023-05-04T14:06:23.806Z,25.05
2023-05-04T14:08:27.182Z,25.11
2023-05-04T14:10:30.013Z,24.72
2023-05-04T14:12:32.702Z,24.37
2023-05-04T14:14:35.734Z,24.12
2023-05-04T14:16:38.597Z,24.00
2023-05-04T14:18:41.311Z,23.78
2023-05-04T14:20:44.054Z,23.50
2023-05-04T14:22:46.788Z,23.37
2023-05-04T14:24:50.296Z,23.37
2023-05-04T14:26:53.266Z,23.30
2023-05-04T14:28:56.146Z,23.14
2023-05-04T14:30:59.562Z,22.98
2023-05-04T14:33:03.888Z,22.78
2023-05-04T14:35:11.223Z,22.70
2023-05-04T14:37:14.107Z,22.54
2023-05-04T14:39:16.976Z,22.33
2023-05-04T14:41:19.675Z,22.25
2023-05-04T14:43:22.325Z,22.36
2023-05-04T14:45:25.017Z,22.37
2023-05-04T14:47:29.160Z,22.09
2023-05-04T14:49:37.391Z,21.96
2023-05-04T14:51:40.846Z,21.79
2023-05-04T14:53:46.544Z,21.56
2023-05-04T14:55:50.073Z,21.50
2023-05-04T14:57:52.924Z,21.44
2023-05-04T14:59:55.737Z,21.29
2023-05-04T15:01:58.437Z,21.19
2023-05-04T15:04:01.085Z,21.09
2023-05-04T15:06:04.297Z,20.92
2023-05-04T15:08:06.976Z,20.73
2023-05-04T15:10:10.727Z,20.58
2023-05-04T15:12:13.717Z,20.26
2023-05-04T15:14:16.518Z,20.15
2023-05-04T15:16:19.336Z,19.97
2023-05-04T15:18:24.143Z,19.80
2023-05-04T15:20:26.982Z,19.72
2023-05-04T15:22:29.686Z,19.53
2023-05-04T15:24:32.731Z,19.39
2023-05-04T15:26:36.132Z,19.30
2023-05-04T15:28:38.796Z,19.23
2023-05-04T15:30:42.619Z,18.99
2023-05-04T15:32:45.455Z,18.90
2023-05-04T15:35:01.004Z,18.72
2023-05-04T15:37:09.355Z,18.65
2023-05-04T15:39:12.679Z,18.48
2023-05-04T15:41:15.446Z,18.23
2023-05-04T15:43:18.171Z,18.09
2023-05-04T15:45:21.496Z,17.94
2023-05-04T15:47:24.463Z,17.79
2023-05-04T15:49:27.431Z,17.75
2023-05-04T15:51:32.273Z,17.70
2023-05-04T15:53:35.107Z,17.70
2023-05-04T15:55:38.006Z,17.59
2023-05-04T15:57:41.275Z,17.47
2023-05-04T15:59:44.007Z,17.48
2023-05-04T16:01:47.377Z,17.39
2023-05-04T16:03:50.238Z,17.41
2023-05-04T16:05:52.999Z,17.40
2023-05-04T16:07:55.762Z,17.41
2023-05-04T16:09:59.546Z,17.36
2023-05-04T16:12:05.462Z,17.46
2023-05-04T16:14:08.217Z,17.47
2023-05-04T16:16:11.264Z,17.47
2023-05-04T16:18:14.080Z,17.52
2023-05-04T16:20:16.822Z,17.45
2023-05-04T16:22:19.647Z,17.41
2023-05-04T16:24:22.353Z,17.38
2023-05-04T16:26:25.988Z,17.38
2023-05-04T16:28:29.640Z,17.33
2023-05-04T16:30:34.627Z,17.21
2023-05-04T16:32:38.705Z,17.19
2023-05-04T16:34:42.305Z,17.18
2023-05-04T16:36:45.780Z,17.10
2023-05-04T16:38:49.353Z,17.13
2023-05-04T16:40:52.403Z,17.13
2023-05-04T16:42:55.727Z,17.10
2023-05-04T16:45:00.168Z,17.05
2023-05-04T16:47:04.473Z,17.07
2023-05-04T16:49:10.462Z,17.07
2023-05-04T16:51:15.036Z,17.00
2023-05-04T16:53:21.720Z,16.90
2023-05-04T16:55:27.445Z,16.83
2023-05-04T16:57:37.342Z,16.80
2023-05-04T17:00:06.068Z,16.73
2023-05-04T17:02:22.824Z,16.63
2023-05-04T17:04:27.820Z,16.63
2023-05-04T17:06:31.728Z,16.57
2023-05-04T17:08:35.341Z,16.54
2023-05-04T17:10:39.501Z,16.53
2023-05-04T17:12:43.079Z,16.51
2023-05-04T17:14:49.730Z,16.47
2023-05-04T17:17:07.178Z,16.37
2023-05-04T17:19:11.313Z,16.28
2023-05-04T17:21:20.608Z,16.24
2023-05-04T17:23:27.589Z,16.22
2023-05-04T17:25:32.609Z,16.18
2023-05-04T17:27:51.701Z,16.05
2023-05-04T17:29:58.951Z,16.02
2023-05-04T17:32:04.252Z,15.98
2023-05-04T17:34:12.944Z,15.90
2023-05-04T17:36:19.946Z,15.85
2023-05-04T17:38:23.140Z,15.81
2023-05-04T17:40:30.339Z,15.74
2023-05-04T17:42:37.455Z,15.59
2023-05-04T17:44:40.613Z,15.54
2023-05-04T17:46:45.063Z,15.38
2023-05-04T17:48:48.344Z,15.28
2023-05-04T17:50:52.243Z,15.26
2023-05-04T17:52:56.082Z,15.14
2023-05-04T17:54:59.313Z,15.07
2023-05-04T17:57:02.403Z,15.03
2023-05-04T17:59:05.388Z,14.96
2023-05-04T18:01:08.279Z,14.91
2023-05-04T18:03:11.235Z,14.86
2023-05-04T18:05:14.002Z,14.78
2023-05-04T18:07:16.753Z,14.74
2023-05-04T18:09:20.174Z,14.70
2023-05-04T18:11:22.986Z,14.62
2023-05-04T18:13:26.150Z,14.53
2023-05-04T18:15:29.069Z,14.47
2023-05-04T18:17:32.015Z,14.39
2023-05-04T18:19:36.697Z,14.36
2023-05-04T18:21:39.534Z,14.30
2023-05-04T18:23:42.715Z,14.27
2023-05-04T18:25:45.676Z,14.24
2023-05-04T18:27:48.585Z,14.20
2023-05-04T18:29:52.654Z,14.13
2023-05-04T18:31:55.537Z,14.09
2023-05-04T18:34:00.744Z,14.04
2023-05-04T18:36:03.592Z,13.93
2023-05-04T18:38:06.449Z,13.85
2023-05-04T18:40:10.315Z,13.81
2023-05-04T18:42:13.994Z,13.75
2023-05-04T18:44:16.824Z,13.71
2023-05-04T18:46:19.666Z,13.69
2023-05-04T18:48:23.499Z,13.62
2023-05-04T18:50:26.257Z,13.60
2023-05-04T18:52:29.055Z,13.50
2023-05-04T18:54:34.642Z,13.43
2023-05-04T18:56:37.634Z,13.40
2023-05-04T18:58:40.621Z,13.38
2023-05-04T19:00:46.522Z,13.37
2023-05-04T19:02:49.372Z,13.29
2023-05-04T19:04:52.313Z,13.33
2023-05-04T19:06:55.103Z,13.32
2023-05-04T19:08:58.082Z,13.29
2023-05-04T19:11:03.474Z,13.28
2023-05-04T19:13:06.435Z,13.24
2023-05-04T19:15:09.814Z,13.18
2023-05-04T19:17:14.810Z,13.15
2023-05-04T19:19:18.030Z,13.16
2023-05-04T19:21:20.850Z,13.07
2023-05-04T19:23:23.590Z,12.98
2023-05-04T19:25:34.056Z,12.97
2023-05-04T19:27:37.565Z,12.92
2023-05-04T19:29:40.297Z,12.91
2023-05-04T19:31:43.130Z,12.91
2023-05-04T19:33:48.893Z,12.83
2023-05-04T19:35:51.931Z,12.83
2023-05-04T19:37:54.730Z,12.83
2023-05-04T19:39:58.187Z,12.86
2023-05-04T19:42:02.249Z,12.85
2023-05-04T19:44:10.341Z,12.81
2023-05-04T19:46:14.900Z,12.73
2023-05-04T19:48:17.921Z,12.74
2023-05-04T19:50:21.166Z,12.71
2023-05-04T19:52:23.954Z,12.69
2023-05-04T19:54:26.985Z,12.61
2023-05-04T19:56:29.673Z,12.59
2023-05-04T19:58:32.947Z,12.53
2023-05-04T20:00:35.779Z,12.50
2023-05-04T20:02:39.417Z,12.54
2023-05-04T20:04:42.364Z,12.55
2023-05-04T20:06:45.185Z,12.52
2023-05-04T20:08:48.103Z,12.48
2023-05-04T20:10:51.175Z,12.44
2023-05-04T20:12:53.935Z,12.39
2023-05-04T20:14:56.857Z,12.37
2023-05-04T20:16:59.751Z,12.33
2023-05-04T20:19:04.190Z,12.36
2023-05-04T20:21:07.137Z,12.38
2023-05-04T20:23:10.071Z,12.37
2023-05-04T20:25:13.585Z,12.38
2023-05-04T20:27:16.597Z,12.37
2023-05-04T20:29:19.589Z,12.32
2023-05-04T20:31:22.367Z,12.33
2023-05-04T20:33:25.248Z,12.35
2023-05-04T20:35:27.990Z,12.36
2023-05-04T20:37:30.729Z,12.38
2023-05-04T20:39:33.552Z,12.36
2023-05-04T20:41:36.284Z,12.38
2023-05-04T20:43:39.360Z,12.36
2023-05-04T20:45:42.247Z,12.32
2023-05-04T20:47:45.159Z,12.32
2023-05-04T20:49:48.008Z,12.35
2023-05-04T20:51:50.797Z,12.31
2023-05-04T20:53:53.518Z,12.33
2023-05-04T20:55:56.556Z,12.32
2023-05-04T20:57:59.250Z,12.33
2023-05-04T21:00:02.095Z,12.35
2023-05-04T21:02:09.461Z,12.29
2023-05-04T21:04:12.342Z,12.23
2023-05-04T21:06:15.096Z,12.24
2023-05-04T21:08:17.961Z,12.18
2023-05-04T21:10:20.928Z,12.17
2023-05-04T21:12:23.852Z,12.11
2023-05-04T21:14:26.892Z,12.09
2023-05-04T21:16:29.677Z,12.01
2023-05-04T21:18:32.446Z,11.97
2023-05-04T21:20:35.957Z,11.95
2023-05-04T21:22:38.742Z,11.91
2023-05-04T21:24:44.071Z,11.89
2023-05-04T21:26:48.643Z,11.92
2023-05-04T21:28:51.685Z,11.94
2023-05-04T21:30:54.870Z,11.88
2023-05-04T21:32:57.690Z,11.82
2023-05-04T21:35:00.467Z,11.78
2023-05-04T21:37:03.934Z,11.73
2023-05-04T21:39:06.743Z,11.75
2023-05-04T21:41:16.935Z,11.75
2023-05-04T21:43:19.674Z,11.77
2023-05-04T21:45:22.327Z,11.78
2023-05-04T21:47:25.624Z,11.77
2023-05-04T21:49:28.711Z,11.75
2023-05-04T21:51:31.852Z,11.69
2023-05-04T21:53:34.815Z,11.65
2023-05-04T21:55:37.702Z,11.61
2023-05-04T21:57:40.368Z,11.58
2023-05-04T21:59:43.107Z,11.58
2023-05-04T22:01:46.272Z,11.57
2023-05-04T22:03:49.237Z,11.52
2023-05-04T22:05:54.399Z,11.53
2023-05-04T22:07:57.091Z,11.54
2023-05-04T22:09:59.937Z,11.53
2023-05-04T22:12:04.170Z,11.53
2023-05-04T22:14:06.961Z,11.54
2023-05-04T22:16:09.815Z,11.50
2023-05-04T22:18:12.870Z,11.46
2023-05-04T22:20:15.861Z,11.50
2023-05-04T22:22:18.624Z,11.52
2023-05-04T22:24:21.613Z,11.52
2023-05-04T22:26:24.712Z,11.54
2023-05-04T22:28:27.569Z,11.52
2023-05-04T22:30:30.531Z,11.53
2023-05-04T22:32:33.280Z,11.48
2023-05-04T22:34:36.213Z,11.46
2023-05-04T22:36:38.974Z,11.42
2023-05-04T22:38:41.615Z,11.44
2023-05-04T22:40:44.376Z,11.43
2023-05-04T22:42:47.015Z,11.43
2023-05-04T22:44:49.682Z,11.40
2023-05-04T22:46:52.596Z,11.41
2023-05-04T22:48:55.219Z,11.41
2023-05-04T22:50:57.910Z,11.36
2023-05-04T22:53:00.751Z,11.34
2023-05-04T22:55:04.439Z,11.31
2023-05-04T22:57:07.177Z,11.27
2023-05-04T22:59:09.890Z,11.24
2023-05-04T23:01:12.599Z,11.21
2023-05-04T23:03:15.319Z,11.19
2023-05-04T23:05:18.375Z,11.24
2023-05-04T23:07:21.272Z,11.28
2023-05-04T23:09:23.922Z,11.29
2023-05-04T23:11:26.549Z,11.32
2023-05-04T23:13:29.153Z,11.35
2023-05-04T23:15:32.940Z,11.40
2023-05-04T23:17:38.561Z,11.41
2023-05-04T23:19:41.297Z,11.43
2023-05-04T23:21:43.937Z,11.45
2023-05-04T23:23:46.977Z,11.42
2023-05-04T23:25:49.689Z,11.38
2023-05-04T23:27:52.374Z,11.37
2023-05-04T23:29:55.125Z,11.33
2023-05-04T23:31:58.114Z,11.32
2023-05-04T23:34:00.894Z,11.32
2023-05-04T23:36:03.943Z,11.27
2023-05-04T23:38:06.528Z,11.25
2023-05-04T23:40:10.404Z,11.21
2023-05-04T23:42:13.266Z,11.16
2023-05-04T23:44:16.737Z,11.07
2023-05-04T23:46:19.350Z,10.99
2023-05-04T23:48:22.061Z,10.92
2023-05-04T23:50:24.764Z,10.81
2023-05-04T23:52:27.415Z,10.70
2023-05-04T23:54:30.100Z,10.63
2023-05-04T23:56:32.979Z,10.54
2023-05-04T23:58:35.937Z,10.45
